Time;durP1;ratioP1;P1;durP2;ratioP2;P2;SDS_P1;SDS_P2;PMS_P1;PMS_P2;Temp;Humidity;BMP_temperature;BMP_pressure;BME280_temperature;BME280_humidity;BME280_pressure;Samples;Min_cycle;Max_cycle;Signal;HPM_P1;HPM_P2
2021/08/14 00:00:14;;;;;;;;;;;;;;;24.17;60.50;100208.78;5310133;27;19983;-87
2021/08/14 00:02:39;;;;;;;;;;;;;;;24.12;60.50;100202.97;5313276;27;19980;-88
2021/08/14 00:05:04;;;;;;;;;;;;;;;23.87;60.48;100200.59;5323395;27;20004;-89
2021/08/14 00:07:29;;;;;;;;;;;;;;;23.80;60.48;100215.38;5301296;27;20732;-89
2021/08/14 00:09:55;;;;;;;;;;;;;;;23.72;60.47;100210.66;5300838;27;19984;-88
2021/08/14 00:12:20;;;;;;;;;;;;;;;23.80;60.48;100213.56;5320533;27;20598;-88
2021/08/14 00:14:45;;;;;;;;;;;;;;;23.77;60.48;100212.94;5320919;27;19986;-88
2021/08/14 00:17:11;;;;;;;;;;;;;;;23.94;60.49;100212.47;5300961;27;19982;-88
2021/08/14 00:19:36;;;;;;;;;;;;;;;23.79;60.47;100209.19;5301106;27;19964;-88
2021/08/14 00:22:01;;;;;;;;;;;;;;;23.80;60.48;100216.22;5300640;27;20007;-89
2021/08/14 00:24:26;;;;;;;;;;;;;;;23.82;60.49;100208.09;5301060;27;19975;-88
2021/08/14 00:26:52;;;;;;;;;;;;;;;23.68;60.48;100205.72;5301162;27;19992;-87
2021/08/14 00:29:17;;;;;;;;;;;;;;;23.57;60.48;100212.72;5301115;27;19979;-88
2021/08/14 00:31:43;;;;;;;;;;;;;;;23.59;60.47;100207.28;5301053;27;20017;-88
2021/08/14 00:34:08;;;;;;;;;;;;;;;23.55;60.47;100217.28;5283029;27;19968;-88
2021/08/14 00:36:34;;;;;;;;;;;;;;;23.76;60.48;100208.59;5300829;27;20289;-88
2021/08/14 00:38:59;;;;;;;;;;;;;;;23.53;60.46;100215.69;5300594;27;20110;-88
2021/08/14 00:41:25;;;;;;;;;;;;;;;23.53;60.46;100211.22;5320841;27;19968;-89
2021/08/14 00:43:50;;;;;;;;;;;;;;;23.64;60.47;100222.84;5282471;27;21363;-90
2021/08/14 00:46:15;;;;;;;;;;;;;;;23.57;60.48;100212.72;5282574;27;20016;-88
2021/08/14 00:48:40;;;;;;;;;;;;;;;23.63;60.47;100213.19;5300704;27;19989;-88
2021/08/14 00:51:07;;;;;;;;;;;;;;;23.60;60.47;100210.78;5304567;27;20702;-89
2021/08/14 00:53:32;;;;;;;;;;;;;;;23.64;60.47;100212.22;5334744;27;19976;-88
2021/08/14 00:55:57;;;;;;;;;;;;;;;23.67;60.47;100206.69;5314791;27;19994;-88
2021/08/14 00:58:23;;;;;;;;;;;;;;;23.59;60.47;100209.94;5307785;27;19995;-88
2021/08/14 01:00:48;;;;;;;;;;;;;;;23.32;60.45;100209.41;5323698;27;20006;-88
2021/08/14 01:03:13;;;;;;;;;;;;;;;23.14;60.44;100204.53;5322442;27;19996;-87
2021/08/14 01:05:42;;;;;;;;;;;;;;;23.30;60.46;100204.22;5301026;27;19983;-88
2021/08/14 01:08:07;;;;;;;;;;;;;;;23.21;60.45;100203.13;5282538;27;20408;-87
2021/08/14 01:10:32;;;;;;;;;;;;;;;23.30;60.46;100201.56;5300993;27;20045;-89
2021/08/14 01:12:58;;;;;;;;;;;;;;;23.05;60.44;100204.41;5282517;27;19960;-89
2021/08/14 01:15:23;;;;;;;;;;;;;;;22.82;60.43;100212.31;5300847;27;19999;-88
2021/08/14 01:17:49;;;;;;;;;;;;;;;23.00;60.43;100212.72;5300892;27;19990;-89
2021/08/14 01:20:14;;;;;;;;;;;;;;;22.89;60.43;100208.22;5282278;27;20546;-88
2021/08/14 01:22:40;;;;;;;;;;;;;;;22.92;60.43;100210.66;5300799;27;19968;-89
2021/08/14 01:25:05;;;;;;;;;;;;;;;22.83;60.43;100206.03;5300763;27;20241;-88
2021/08/14 01:27:31;;;;;;;;;;;;;;;22.66;60.42;100209.91;5300735;27;20005;-88
2021/08/14 01:29:56;;;;;;;;;;;;;;;22.73;60.43;100206.84;5300602;27;20002;-87
2021/08/14 01:32:22;;;;;;;;;;;;;;;22.86;60.43;100204.97;5300621;27;20024;-88
2021/08/14 01:34:47;;;;;;;;;;;;;;;22.92;60.43;100202.69;5320664;27;19983;-87
2021/08/14 01:37:12;;;;;;;;;;;;;;;22.87;60.43;100204.00;5300841;27;19995;-88
2021/08/14 01:39:37;;;;;;;;;;;;;;;22.92;60.43;100208.00;5300717;27;19968;-89
2021/08/14 01:42:03;;;;;;;;;;;;;;;22.84;60.43;100207.72;5282072;27;20048;-89
2021/08/14 01:44:29;;;;;;;;;;;;;;;22.79;60.42;100201.91;5300885;27;19987;-88
2021/08/14 01:46:54;;;;;;;;;;;;;;;22.65;60.42;100202.94;5320540;27;19968;-89
2021/08/14 01:49:20;;;;;;;;;;;;;;;22.66;60.42;100199.31;5300746;27;19963;-87
2021/08/14 01:51:45;;;;;;;;;;;;;;;22.66;60.42;100198.47;5300867;27;20098;-89
2021/08/14 01:54:10;;;;;;;;;;;;;;;22.58;60.42;100201.69;5282035;27;19972;-89
2021/08/14 01:56:36;;;;;;;;;;;;;;;22.62;60.41;100197.00;5300397;27;19975;-88
2021/08/14 01:59:01;;;;;;;;;;;;;;;22.61;60.41;100205.94;5299875;27;22192;-88
2021/08/14 02:01:26;;;;;;;;;;;;;;;22.59;60.42;100198.09;5282235;27;19980;-88
2021/08/14 02:03:52;;;;;;;;;;;;;;;22.52;60.41;100202.16;5300626;27;20114;-88
2021/08/14 02:06:17;;;;;;;;;;;;;;;22.50;60.41;100196.13;5282350;27;20316;-88
2021/08/14 02:08:42;;;;;;;;;;;;;;;22.40;60.41;100197.75;5301043;27;19972;-89
2021/08/14 02:11:14;;;;;;;;;;;;;;;22.34;60.41;100196.41;5301453;27;19963;-88
2021/08/14 02:13:43;;;;;;;;;;;;;;;22.37;60.40;100201.47;5301467;27;20321;-88
2021/08/14 02:16:08;;;;;;;;;;;;;;;22.41;60.41;100202.09;5301328;27;19975;-88
2021/08/14 02:18:33;;;;;;;;;;;;;;;22.40;60.40;100191.59;5283005;27;19987;-88
2021/08/14 02:20:59;;;;;;;;;;;;;;;22.49;60.41;100189.13;5301242;27;19987;-89
2021/08/14 02:23:24;;;;;;;;;;;;;;;22.41;60.41;100191.50;5282968;27;19988;-89
2021/08/14 02:25:49;;;;;;;;;;;;;;;22.40;60.40;100186.28;5301429;27;20390;-89
2021/08/14 02:28:14;;;;;;;;;;;;;;;22.40;60.41;100192.44;5301384;27;19968;-89
2021/08/14 02:30:39;;;;;;;;;;;;;;;22.43;60.41;100181.59;5282904;27;19963;-88
2021/08/14 02:33:05;;;;;;;;;;;;;;;22.46;60.40;100185.84;5300868;27;19979;-88
2021/08/14 02:35:30;;;;;;;;;;;;;;;22.30;60.39;100183.50;5283089;27;19980;-88
2021/08/14 02:37:55;;;;;;;;;;;;;;;22.34;60.40;100187.59;5300997;27;19983;-88
2021/08/14 02:40:21;;;;;;;;;;;;;;;22.39;60.39;100180.16;5301254;27;20004;-88
2021/08/14 02:42:46;;;;;;;;;;;;;;;22.42;60.41;100189.69;5321203;27;20034;-86
2021/08/14 02:45:12;;;;;;;;;;;;;;;22.35;60.40;100189.28;5282734;27;20680;-89
2021/08/14 02:47:37;;;;;;;;;;;;;;;22.41;60.41;100180.88;5301407;27;20266;-89
2021/08/14 02:50:03;;;;;;;;;;;;;;;22.43;60.40;100184.25;5301792;27;19975;-90
2021/08/14 02:52:28;;;;;;;;;;;;;;;22.42;60.41;100179.06;5301317;27;19972;-87
2021/08/14 02:54:53;;;;;;;;;;;;;;;22.30;60.39;100183.50;5320740;27;21742;-87
2021/08/14 02:57:18;;;;;;;;;;;;;;;22.43;60.40;100181.59;5301347;27;19982;-88
2021/08/14 02:59:44;;;;;;;;;;;;;;;22.49;60.41;100182.97;5282314;27;26983;-88
2021/08/14 03:02:09;;;;;;;;;;;;;;;22.47;60.40;100192.84;5320524;27;20297;-87
2021/08/14 03:04:34;;;;;;;;;;;;;;;22.46;60.40;100184.03;5320577;27;21388;-87
2021/08/14 03:06:59;;;;;;;;;;;;;;;22.46;60.41;100191.97;5301228;27;20002;-87
2021/08/14 03:09:24;;;;;;;;;;;;;;;22.45;60.40;100189.44;5300820;27;20106;-87
2021/08/14 03:11:50;;;;;;;;;;;;;;;22.35;60.40;100195.44;5301254;27;19971;-87
2021/08/14 03:14:15;;;;;;;;;;;;;;;22.28;60.40;100196.03;5321070;27;20309;-86
2021/08/14 03:16:40;;;;;;;;;;;;;;;22.31;60.39;100193.97;5283144;27;20002;-88
2021/08/14 03:19:05;;;;;;;;;;;;;;;22.37;60.40;100190.88;5300956;27;20013;-88
2021/08/14 03:21:31;;;;;;;;;;;;;;;22.33;60.41;100201.81;5300224;27;19990;-88
2021/08/14 03:23:56;;;;;;;;;;;;;;;22.35;60.40;100192.78;5300901;27;19964;-88
2021/08/14 03:26:22;;;;;;;;;;;;;;;22.34;60.40;100195.56;5320295;27;25968;-89
2021/08/14 03:28:48;;;;;;;;;;;;;;;22.34;60.40;100190.25;5301604;27;19994;-87
2021/08/14 03:31:13;;;;;;;;;;;;;;;22.37;60.40;100197.97;5321127;27;20524;-86
2021/08/14 03:33:38;;;;;;;;;;;;;;;22.36;60.40;100197.13;5320341;27;27253;-88
2021/08/14 03:36:04;;;;;;;;;;;;;;;22.37;60.39;100204.13;5301078;27;20035;-88
2021/08/14 03:38:29;;;;;;;;;;;;;;;22.17;60.39;100209.19;5301400;27;20002;-88
2021/08/14 03:40:54;;;;;;;;;;;;;;;22.44;60.40;100214.28;5300960;27;19983;-90
2021/08/14 03:43:20;;;;;;;;;;;;;;;22.02;60.39;100217.28;5300899;27;19975;-90
2021/08/14 03:45:46;;;;;;;;;;;;;;;22.10;60.39;100219.41;5283165;27;20027;-88
2021/08/14 03:48:11;;;;;;;;;;;;;;;22.08;60.38;100212.53;5282785;27;19987;-88
2021/08/14 03:50:36;;;;;;;;;;;;;;;22.11;60.39;100213.16;5300471;27;23867;-86
2021/08/14 03:53:01;;;;;;;;;;;;;;;22.12;60.38;100219.31;5320090;27;27117;-87
2021/08/14 03:55:27;;;;;;;;;;;;;;;22.23;60.39;100216.69;5299754;27;33809;-87
2021/08/14 03:57:52;;;;;;;;;;;;;;;22.15;60.39;100216.41;5320511;27;19987;-88
2021/08/14 04:00:17;;;;;;;;;;;;;;;22.12;60.39;100219.31;5299803;27;28520;-87
2021/08/14 04:02:42;;;;;;;;;;;;;;;22.13;60.38;100227.13;5282743;27;19980;-87
2021/08/14 04:05:08;;;;;;;;;;;;;;;22.03;60.39;100229.59;5320612;27;21326;-87
2021/08/14 04:07:33;;;;;;;;;;;;;;;22.18;60.38;100232.09;5301036;27;19984;-87
2021/08/14 04:09:58;;;;;;;;;;;;;;;22.15;60.39;100234.97;5320692;27;20009;-87
2021/08/14 04:12:23;;;;;;;;;;;;;;;22.24;60.38;100235.19;5282761;27;20051;-88
2021/08/14 04:14:49;;;;;;;;;;;;;;;22.20;60.39;100246.09;5301650;27;20015;-91
2021/08/14 04:17:14;;;;;;;;;;;;;;;22.36;60.39;100239.56;5283235;27;19990;-90
2021/08/14 04:19:39;;;;;;;;;;;;;;;22.33;60.40;100231.84;5305180;27;19972;-91
2021/08/14 04:22:05;;;;;;;;;;;;;;;22.23;60.38;100236.09;5319059;27;19957;-90
2021/08/14 04:24:30;;;;;;;;;;;;;;;22.39;60.40;100245.62;5301298;27;19979;-91
2021/08/14 04:26:55;;;;;;;;;;;;;;;22.34;60.40;100241.50;5293049;27;19975;-90
2021/08/14 04:29:20;;;;;;;;;;;;;;;22.48;60.41;100237.84;5287567;27;19984;-90
2021/08/14 04:31:46;;;;;;;;;;;;;;;22.55;60.41;100232.94;5322720;27;20378;-90
2021/08/14 04:34:11;;;;;;;;;;;;;;;22.60;60.41;100238.72;5282976;27;20313;-91
2021/08/14 04:36:37;;;;;;;;;;;;;;;22.67;60.42;100234.66;5282410;27;22858;-90
2021/08/14 04:39:02;;;;;;;;;;;;;;;22.67;60.42;100232.00;5301154;27;19972;-90
2021/08/14 04:41:27;;;;;;;;;;;;;;;22.76;60.42;100236.63;5282432;27;19983;-90
2021/08/14 04:43:53;;;;;;;;;;;;;;;22.84;60.42;100239.59;5282584;27;20283;-90
2021/08/14 04:46:18;;;;;;;;;;;;;;;22.99;60.43;100242.06;5320846;27;19972;-91
2021/08/14 04:48:43;;;;;;;;;;;;;;;22.97;60.43;100239.53;5320884;27;20026;-90
2021/08/14 04:51:08;;;;;;;;;;;;;;;23.02;60.42;100241.81;5301104;27;19975;-90
2021/08/14 04:53:34;;;;;;;;;;;;;;;23.13;60.44;100247.16;5282922;27;20014;-91
2021/08/14 04:55:59;;;;;;;;;;;;;;;23.36;60.45;100242.72;5282605;27;20002;-90
2021/08/14 04:58:24;;;;;;;;;;;;;;;23.43;60.46;100247.47;5282503;27;20261;-90
2021/08/14 05:00:49;;;;;;;;;;;;;;;23.40;60.44;100237.06;5282629;27;19960;-91
2021/08/14 05:03:15;;;;;;;;;;;;;;;23.72;60.46;100239.91;5282815;27;20226;-91
2021/08/14 05:05:42;;;;;;;;;;;;;;;23.72;60.46;100241.72;5283181;27;19975;-91
2021/08/14 05:08:07;;;;;;;;;;;;;;;23.80;60.47;100250.78;5304439;27;19951;-91
2021/08/14 05:10:32;;;;;;;;;;;;;;;23.88;60.47;100239.53;5289982;27;20314;-91
2021/08/14 05:12:58;;;;;;;;;;;;;;;23.99;60.48;100247.50;5304152;27;19983;-91
2021/08/14 05:15:23;;;;;;;;;;;;;;;24.06;60.48;100243.38;5283182;27;19960;-91
2021/08/14 05:17:48;;;;;;;;;;;;;;;24.19;60.49;100244.09;5282746;27;20002;-91
2021/08/14 05:20:14;;;;;;;;;;;;;;;24.27;60.49;100243.47;5282140;27;20018;-89
2021/08/14 05:22:39;;;;;;;;;;;;;;;24.29;60.50;100244.22;5300625;27;19971;-88
2021/08/14 05:25:04;;;;;;;;;;;;;;;24.42;60.50;100244.06;5300387;27;19976;-88
2021/08/14 05:27:30;;;;;;;;;;;;;;;24.54;60.51;100253.69;5273390;27;20002;-88
2021/08/14 05:29:55;;;;;;;;;;;;;;;24.50;60.51;100244.28;5320730;27;19964;-88
2021/08/14 05:32:21;;;;;;;;;;;;;;;24.56;60.51;100251.75;5300692;27;19986;-88
2021/08/14 05:34:46;;;;;;;;;;;;;;;24.64;60.52;100246.66;5282722;27;19972;-88
2021/08/14 05:37:11;;;;;;;;;;;;;;;24.75;60.51;100256.41;5301038;27;19988;-89
2021/08/14 05:39:37;;;;;;;;;;;;;;;24.92;60.53;100255.00;5301014;27;20268;-88
2021/08/14 05:42:02;;;;;;;;;;;;;;;25.03;60.53;100242.50;5300907;27;19991;-89
2021/08/14 05:44:28;;;;;;;;;;;;;;;25.28;60.55;100243.94;5300757;27;19956;-88
2021/08/14 05:46:53;;;;;;;;;;;;;;;25.38;60.56;100247.50;5320895;27;20332;-89
2021/08/14 05:49:18;;;;;;;;;;;;;;;25.44;60.55;100248.78;5301620;27;19995;-88
2021/08/14 05:51:43;;;;;;;;;;;;;;;25.53;60.56;100253.31;5321115;27;20006;-88
2021/08/14 05:54:09;;;;;;;;;;;;;;;25.79;60.57;100240.44;5321228;27;19982;-89
2021/08/14 05:56:34;;;;;;;;;;;;;;;25.89;60.57;100235.97;5321012;27;19972;-89
2021/08/14 05:58:59;;;;;;;;;;;;;;;25.84;60.57;100232.88;5301186;27;19964;-89
2021/08/14 06:01:25;;;;;;;;;;;;;;;25.99;60.58;100238.66;5320845;27;19961;-88
2021/08/14 06:03:50;;;;;;;;;;;;;;;25.94;60.59;100239.06;5300949;27;20014;-89
2021/08/14 06:06:16;;;;;;;;;;;;;;;26.00;60.58;100238.53;5320893;27;19986;-88
2021/08/14 06:08:41;;;;;;;;;;;;;;;26.08;60.58;100245.03;5300168;27;28664;-89
2021/08/14 06:11:06;;;;;;;;;;;;;;;26.26;60.59;100246.91;5300921;27;20067;-89
2021/08/14 06:13:31;;;;;;;;;;;;;;;26.31;60.60;100243.81;5300592;27;27432;-89
2021/08/14 06:15:57;;;;;;;;;;;;;;;26.46;60.60;100239.78;5321502;27;19968;-89
2021/08/14 06:18:22;;;;;;;;;;;;;;;26.49;60.61;100244.84;5300635;27;20307;-89
2021/08/14 06:20:47;;;;;;;;;;;;;;;26.66;60.62;100240.66;5320862;27;20237;-89
2021/08/14 06:23:12;;;;;;;;;;;;;;;26.78;60.62;100244.03;5320640;27;19985;-89
2021/08/14 06:25:38;;;;;;;;;;;;;;;26.86;60.62;100245.00;5308308;27;19968;-89
2021/08/14 06:28:03;;;;;;;;;;;;;;;27.10;60.63;100249.94;5328807;27;19964;-89
2021/08/14 06:30:28;;;;;;;;;;;;;;;27.14;60.64;100245.13;5321040;27;19987;-89
2021/08/14 06:32:53;;;;;;;;;;;;;;;27.19;60.64;100248.22;5300484;27;23166;-89
2021/08/14 06:35:19;;;;;;;;;;;;;;;27.39;60.65;100247.19;5321033;27;19991;-89
2021/08/14 06:37:44;;;;;;;;;;;;;;;27.54;60.66;100247.59;5300275;27;27058;-89
2021/08/14 06:40:12;;;;;;;;;;;;;;;27.62;60.66;100246.84;5301230;27;19964;-89
2021/08/14 06:42:37;;;;;;;;;;;;;;;27.78;60.68;100242.59;5321125;27;19964;-88
2021/08/14 06:45:03;;;;;;;;;;;;;;;27.88;60.68;100247.91;5301698;27;20027;-89
2021/08/14 06:47:28;;;;;;;;;;;;;;;28.11;60.69;100241.16;5301938;27;19972;-89
2021/08/14 06:49:53;;;;;;;;;;;;;;;28.11;60.69;100243.00;5300953;27;20007;-89
2021/08/14 06:52:19;;;;;;;;;;;;;;;28.36;60.70;100236.94;5282685;27;19952;-89
2021/08/14 06:54:44;;;;;;;;;;;;;;;28.50;60.71;100234.75;5321098;27;20281;-88
2021/08/14 06:57:09;;;;;;;;;;;;;;;28.58;60.71;100241.00;5283669;27;20018;-89
2021/08/14 06:59:34;;;;;;;;;;;;;;;28.61;60.71;100243.38;5321968;27;19979;-89
2021/08/14 07:02:00;;;;;;;;;;;;;;;28.76;60.73;100240.19;5301876;27;20345;-89
2021/08/14 07:04:25;;;;;;;;;;;;;;;28.81;60.73;100248.59;5301934;27;19968;-89
2021/08/14 07:06:50;;;;;;;;;;;;;;;28.91;60.73;100242.19;5283261;27;19964;-89
2021/08/14 07:09:15;;;;;;;;;;;;;;;29.01;60.75;100245.62;5321777;27;19959;-89
2021/08/14 07:11:45;;;;;;;;;;;;;;;29.09;60.75;100239.47;5302208;27;19971;-89
2021/08/14 07:14:10;;;;;;;;;;;;;;;29.19;60.75;100242.06;5321937;27;19976;-89
2021/08/14 07:16:35;;;;;;;;;;;;;;;29.24;60.74;100245.94;5302108;27;19986;-89
2021/08/14 07:19:00;;;;;;;;;;;;;;;29.32;60.75;100242.47;5309494;27;19982;-90
2021/08/14 07:21:26;;;;;;;;;;;;;;;29.50;60.75;100239.78;5324467;27;20360;-89
2021/08/14 07:23:51;;;;;;;;;;;;;;;29.72;60.78;100239.22;5301717;27;20226;-89
2021/08/14 07:26:16;;;;;;;;;;;;;;;29.85;60.77;100238.78;5321508;27;20007;-90
2021/08/14 07:28:41;;;;;;;;;;;;;;;29.89;60.79;100242.84;5301778;27;19992;-89
2021/08/14 07:31:07;;;;;;;;;;;;;;;29.81;60.78;100240.09;5301976;27;20308;-89
2021/08/14 07:33:32;;;;;;;;;;;;;;;30.01;60.79;100246.87;5321601;27;20022;-90
2021/08/14 07:35:57;;;;;;;;;;;;;;;30.13;60.80;100244.81;5321344;27;20289;-89
2021/08/14 07:38:22;;;;;;;;;;;;;;;30.13;60.80;100237.59;5321696;27;20241;-90
2021/08/14 07:40:47;;;;;;;;;;;;;;;30.22;60.80;100241.97;5301555;27;19991;-90
2021/08/14 07:43:13;;;;;;;;;;;;;;;30.30;60.80;100246.53;5321474;27;20014;-90
2021/08/14 07:45:38;;;;;;;;;;;;;;;30.38;60.81;100246.53;5323176;27;20046;-90
2021/08/14 07:48:04;;;;;;;;;;;;;;;30.43;60.80;100248.72;5313308;27;20004;-90
2021/08/14 07:50:30;;;;;;;;;;;;;;;30.57;60.81;100244.56;5335647;27;19932;-90
2021/08/14 07:52:55;;;;;;;;;;;;;;;30.70;60.83;100250.31;5293587;27;19999;-90
2021/08/14 07:55:21;;;;;;;;;;;;;;;30.65;60.82;100250.81;5318860;27;94865;-90
2021/08/14 07:57:46;;;;;;;;;;;;;;;30.81;60.83;100242.78;5302524;27;19990;-90
2021/08/14 08:00:13;;;;;;;;;;;;;;;30.63;60.82;100246.63;5301591;27;20233;-89
2021/08/14 08:02:38;;;;;;;;;;;;;;;30.68;60.83;100246.94;5301416;27;20014;-89
2021/08/14 08:05:04;;;;;;;;;;;;;;;30.93;60.84;100242.44;5301299;27;20379;-90
2021/08/14 08:07:29;;;;;;;;;;;;;;;30.80;60.83;100246.47;5282763;27;20010;-90
2021/08/14 08:09:55;;;;;;;;;;;;;;;30.96;60.84;100244.78;5301265;27;20225;-90
2021/08/14 08:12:20;;;;;;;;;;;;;;;31.07;60.85;100242.59;5300777;27;20015;-90
2021/08/14 08:14:45;;;;;;;;;;;;;;;31.21;60.85;100243.78;5301069;27;19976;-89
2021/08/14 08:17:10;;;;;;;;;;;;;;;31.15;60.84;100245.28;5290577;27;19987;-90
2021/08/14 08:19:35;;;;;;;;;;;;;;;31.27;60.85;100248.50;5303218;27;19959;-90
2021/08/14 08:22:01;;;;;;;;;;;;;;;31.46;60.86;100240.03;5300239;27;30461;-90
2021/08/14 08:24:26;;;;;;;;;;;;;;;31.67;60.87;100234.06;5301092;27;19972;-90
2021/08/14 08:26:51;;;;;;;;;;;;;;;31.61;60.87;100233.94;5320228;27;25866;-90
2021/08/14 08:29:16;;;;;;;;;;;;;;;31.83;60.89;100230.53;5321195;27;19971;-91
2021/08/14 08:31:42;;;;;;;;;;;;;;;32.01;60.89;100232.97;5300855;27;19972;-91
2021/08/14 08:34:07;;;;;;;;;;;;;;;32.38;60.91;100226.06;5301218;27;20317;-90
2021/08/14 08:36:32;;;;;;;;;;;;;;;32.46;60.91;100218.78;5300853;27;19968;-92
2021/08/14 08:38:58;;;;;;;;;;;;;;;32.68;60.93;100222.50;5282602;27;19980;-90
2021/08/14 08:41:23;;;;;;;;;;;;;;;32.78;60.93;100216.84;5300374;27;21058;-89
2021/08/14 08:43:48;;;;;;;;;;;;;;;32.95;60.94;100215.72;5282224;27;19975;-90
2021/08/14 08:46:13;;;;;;;;;;;;;;;33.02;60.95;100213.97;5300558;26;20006;-89
2021/08/14 08:48:46;;;;;;;;;;;;;;;33.36;60.96;100205.41;5320771;27;19971;-89
2021/08/14 08:51:11;;;;;;;;;;;;;;;33.56;60.96;100202.94;5301120;27;20027;-90
2021/08/14 08:53:38;;;;;;;;;;;;;;;33.50;60.97;100198.31;5301213;27;20289;-90
2021/08/14 08:56:04;;;;;;;;;;;;;;;33.48;60.98;100197.66;5301323;27;19973;-89
2021/08/14 08:58:29;;;;;;;;;;;;;;;33.67;60.98;100191.69;5282994;27;19964;-90
2021/08/14 09:00:54;;;;;;;;;;;;;;;33.91;60.99;100187.03;5281936;27;22143;-89
2021/08/14 09:03:19;;;;;;;;;;;;;;;33.75;60.98;100188.88;5282468;27;20257;-89
2021/08/14 09:05:45;;;;;;;;;;;;;;;33.85;60.98;100189.47;5299896;27;24069;-89
2021/08/14 09:08:11;;;;;;;;;;;;;;;33.97;60.99;100178.16;5320916;27;19979;-89
2021/08/14 09:10:36;;;;;;;;;;;;;;;34.04;61.00;100187.19;5320823;27;20149;-89
2021/08/14 09:13:11;;;;;;;;;;;;;;;34.16;61.00;100180.25;5320808;27;19980;-90
2021/08/14 09:15:37;;;;;;;;;;;;;;;34.37;61.02;100176.78;5300835;27;19971;-90
2021/08/14 09:18:02;;;;;;;;;;;;;;;34.40;61.01;100179.09;5320853;27;20002;-89
2021/08/14 09:20:28;;;;;;;;;;;;;;;34.30;61.01;100175.81;5300671;27;19976;-90
2021/08/14 09:22:59;;;;;;;;;;;;;;;34.58;61.02;100168.66;5320884;27;20348;-90
2021/08/14 09:25:24;;;;;;;;;;;;;;;34.58;61.02;100171.34;5320898;27;20311;-89
2021/08/14 09:27:52;;;;;;;;;;;;;;;34.39;61.01;100182.81;5299879;27;33826;-89
2021/08/14 09:30:18;;;;;;;;;;;;;;;34.41;61.01;100173.47;5300717;27;20075;-89
2021/08/14 09:32:44;;;;;;;;;;;;;;;34.58;61.02;100173.22;5301139;27;20297;-90
2021/08/14 09:35:11;;;;;;;;;;;;;;;34.66;61.02;100175.78;5300990;27;19967;-90
2021/08/14 09:37:37;;;;;;;;;;;;;;;34.68;61.02;100171.00;5300633;27;19986;-90
2021/08/14 09:40:02;;;;;;;;;;;;;;;34.73;61.02;100172.09;5300957;27;19988;-90
2021/08/14 09:42:28;;;;;;;;;;;;;;;34.74;61.03;100162.13;5300907;27;19980;-90
2021/08/14 09:45:19;;;;;;;;;;;;;;;34.85;61.02;100158.09;5300705;27;19990;-90
2021/08/14 09:47:45;;;;;;;;;;;;;;;35.10;61.05;100162.00;5316384;27;19970;-90
2021/08/14 09:50:10;;;;;;;;;;;;;;;35.43;61.06;100154.09;5300964;27;19972;-90
2021/08/14 09:52:36;;;;;;;;;;;;;;;35.56;61.06;100153.34;5300823;27;19990;-90
2021/08/14 09:55:01;;;;;;;;;;;;;;;35.86;61.08;100145.78;5282289;27;19994;-90
2021/08/14 09:57:26;;;;;;;;;;;;;;;36.03;61.09;100147.06;5300774;27;20257;-89
2021/08/14 09:59:51;;;;;;;;;;;;;;;35.91;61.09;100140.56;5300707;27;19972;-91
2021/08/14 10:02:18;;;;;;;;;;;;;;;36.02;61.09;100131.03;5300817;27;20225;-90
2021/08/14 10:04:44;;;;;;;;;;;;;;;36.04;61.09;100127.06;5282621;27;19991;-90
2021/08/14 10:07:10;;;;;;;;;;;;;;;36.05;61.09;100126.03;5301029;27;20301;-90
2021/08/14 10:09:35;;;;;;;;;;;;;;;36.17;61.10;100118.94;5279056;27;19968;-91
2021/08/14 10:12:00;;;;;;;;;;;;;;;36.33;61.10;100111.50;5296196;27;20253;-90
2021/08/14 10:14:25;;;;;;;;;;;;;;;36.33;61.11;100116.91;5300939;27;19975;-90
2021/08/14 10:16:50;;;;;;;;;;;;;;;36.56;61.12;100117.34;5303855;27;19970;-90
2021/08/14 10:19:16;;;;;;;;;;;;;;;36.81;61.13;100122.97;5291390;27;20013;-91
2021/08/14 10:21:41;;;;;;;;;;;;;;;36.87;61.14;100114.84;5302930;27;20045;-90
2021/08/14 10:24:07;;;;;;;;;;;;;;;36.96;61.14;100112.75;5320780;27;19984;-88
2021/08/14 10:26:32;;;;;;;;;;;;;;;37.24;61.15;100108.91;5301005;27;19960;-88
2021/08/14 10:28:58;;;;;;;;;;;;;;;37.41;61.15;100102.00;5319976;27;25008;-88
2021/08/14 10:31:29;;;;;;;;;;;;;;;37.45;61.16;100111.37;5321446;27;20237;-88
2021/08/14 10:33:54;;;;;;;;;;;;;;;37.45;61.16;100104.06;5321540;27;19960;-88
2021/08/14 10:36:21;;;;;;;;;;;;;;;37.56;61.16;100097.09;5321242;27;19971;-88
2021/08/14 10:38:46;;;;;;;;;;;;;;;37.64;61.17;100086.00;5321489;27;20024;-89
2021/08/14 10:41:12;;;;;;;;;;;;;;;37.52;61.17;100097.75;5301494;27;19964;-89
2021/08/14 10:44:03;;;;;;;;;;;;;;;37.51;61.16;100085.22;5301557;27;19986;-88
2021/08/14 10:46:38;;;;;;;;;;;;;;;37.76;61.17;100088.88;5317366;27;19960;-88
2021/08/14 10:49:11;;;;;;;;;;;;;;;37.90;61.18;100085.03;5283665;27;19999;-89
2021/08/14 10:51:48;;;;;;;;;;;;;;;38.15;61.19;100086.97;5301749;27;20301;-88
2021/08/14 10:54:34;;;;;;;;;;;;;;;38.33;61.19;100081.59;5321642;27;19974;-89
2021/08/14 10:56:59;;;;;;;;;;;;;;;38.36;61.20;100090.19;5275628;27;19971;-88
2021/08/14 10:59:40;;;;;;;;;;;;;;;38.44;61.20;100074.63;5301459;27;19991;-89
2021/08/14 11:02:12;;;;;;;;;;;;;;;38.42;61.21;100071.28;5321419;27;19978;-88
2021/08/14 11:04:44;;;;;;;;;;;;;;;38.41;61.20;100066.91;5321368;27;19967;-89
2021/08/14 11:07:18;;;;;;;;;;;;;;;38.26;61.20;100067.25;5301425;27;19968;-88
2021/08/14 11:09:44;;;;;;;;;;;;;;;38.33;61.20;100060.72;5321490;27;19978;-88
2021/08/14 11:12:10;;;;;;;;;;;;;;;38.60;61.21;100064.00;5321498;27;19972;-89
2021/08/14 11:14:38;;;;;;;;;;;;;;;38.62;61.21;100051.03;5300927;27;22479;-89
2021/08/14 11:17:03;;;;;;;;;;;;;;;38.55;61.21;100047.50;5321552;27;19991;-89
2021/08/14 11:19:47;;;;;;;;;;;;;;;38.86;61.23;100043.87;5321228;27;19984;-89
2021/08/14 11:22:18;;;;;;;;;;;;;;;38.97;61.22;100045.00;5321396;27;20241;-89
2021/08/14 11:24:44;;;;;;;;;;;;;;;39.06;61.23;100038.22;5332001;27;19940;-89
2021/08/14 11:27:15;;;;;;;;;;;;;;;39.32;61.25;100041.69;5312552;27;25650;-89
2021/08/14 11:29:41;;;;;;;;;;;;;;;39.47;61.25;100026.59;5310833;27;20582;-89
2021/08/14 11:32:06;;;;;;;;;;;;;;;39.61;61.26;100027.28;5302520;27;19990;-88
2021/08/14 11:34:31;;;;;;;;;;;;;;;39.64;61.27;100023.25;5321972;27;19980;-88
2021/08/14 11:36:59;;;;;;;;;;;;;;;39.47;61.25;100020.31;5300763;27;29010;-88
2021/08/14 11:39:34;;;;;;;;;;;;;;;39.15;61.23;100033.31;5321500;27;19975;-89
2021/08/14 11:41:59;;;;;;;;;;;;;;;39.12;61.24;100033.78;5320696;27;19974;-88
2021/08/14 11:44:27;;;;;;;;;;;;;;;38.99;61.23;100021.94;5321283;27;20004;-89
2021/08/14 11:46:59;;;;;;;;;;;;;;;38.80;61.22;100020.28;5321306;27;19964;-88
2021/08/14 11:49:24;;;;;;;;;;;;;;;38.47;61.21;100019.78;5321373;27;19999;-89
2021/08/14 11:51:59;;;;;;;;;;;;;;;38.44;61.21;100014.78;5301111;27;19976;-89
2021/08/14 11:54:27;;;;;;;;;;;;;;;38.25;61.20;100032.94;5301441;27;19977;-89
2021/08/14 11:56:53;;;;;;;;;;;;;;;38.26;61.20;100023.72;5283095;27;19979;-88
2021/08/14 11:59:29;;;;;;;;;;;;;;;38.14;61.19;100020.06;5300828;27;20825;-88
2021/08/14 12:01:54;;;;;;;;;;;;;;;38.13;61.20;100015.69;5321263;27;20385;-89
2021/08/14 12:04:19;;;;;;;;;;;;;;;37.99;61.18;100010.34;5301146;27;19967;-88
2021/08/14 12:06:44;;;;;;;;;;;;;;;37.88;61.18;100008.34;5301344;27;20352;-88
2021/08/14 12:09:10;;;;;;;;;;;;;;;37.85;61.18;100006.03;5321101;27;20006;-88
2021/08/14 12:11:35;;;;;;;;;;;;;;;37.72;61.17;100004.28;5301169;27;19975;-89
2021/08/14 12:14:19;;;;;;;;;;;;;;;37.91;61.18;100004.34;5321098;27;19967;-88
2021/08/14 12:16:45;;;;;;;;;;;;;;;38.03;61.19;99997.12;5302040;27;20304;-89
2021/08/14 12:19:11;;;;;;;;;;;;;;;38.10;61.20;99997.94;5284067;27;19984;-88
2021/08/14 12:21:36;;;;;;;;;;;;;;;38.10;61.20;99997.94;5302697;27;19992;-88
2021/08/14 12:24:02;;;;;;;;;;;;;;;38.45;61.21;99998.25;5290755;27;19968;-89
2021/08/14 12:26:28;;;;;;;;;;;;;;;38.29;61.21;99993.37;5309533;27;19970;-88
2021/08/14 12:29:00;;;;;;;;;;;;;;;38.17;61.20;99995.13;5301443;27;19968;-89
2021/08/14 12:31:25;;;;;;;;;;;;;;;38.37;61.21;99993.09;5301241;27;19983;-88